Terminal Aerodrome Forecast
Issued by NWS

Home | Current Version | Previous Version | Text Only | Print | Product List | Glossary On
Versions: 1 2 3 4 5 6 7 8 9 10 11 12 13 14
000
FTUS44 KTSA 102300
TAFRVS
TAF
KRVS 102326Z 1100/1124 13006KT P6SM SCT120
     FM110800 14003KT 5SM BR SCT250
     FM111400 18008KT P6SM SCT250
     FM111900 19010G17KT P6SM FEW050=

USA.gov is the U.S. government's official web portal to all federal, state and local government web resources and services.